sensor_id;sensor_type;location;lat;lon;timestamp;P1;durP1;ratioP1;P2;durP2;ratioP2
37151;SDS011;23046;50.112;8.952;2023-08-24T00:00:04;3.77;;;3.47;;
37151;SDS011;23046;50.112;8.952;2023-08-24T00:00:16;3.80;;;3.50;;
37151;SDS011;23046;50.112;8.952;2023-08-24T00:00:26;3.97;;;3.67;;
37151;SDS011;23046;50.112;8.952;2023-08-24T00:00:37;4.07;;;3.77;;
37151;SDS011;23046;50.112;8.952;2023-08-24T00:00:47;4.28;;;3.97;;
37151;SDS011;23046;50.112;8.952;2023-08-24T00:00:58;4.40;;;4.00;;
37151;SDS011;23046;50.112;8.952;2023-08-24T00:01:08;4.30;;;3.90;;
37151;SDS011;23046;50.112;8.952;2023-08-24T00:01:19;4.10;;;3.70;;
37151;SDS011;23046;50.112;8.952;2023-08-24T00:01:30;3.70;;;3.40;;
37151;SDS011;23046;50.112;8.952;2023-08-24T00:01:40;3.70;;;3.40;;
37151;SDS011;23046;50.112;8.952;2023-08-24T00:01:51;3.70;;;3.40;;
37151;SDS011;23046;50.112;8.952;2023-08-24T00:02:01;3.80;;;3.50;;
37151;SDS011;23046;50.112;8.952;2023-08-24T00:02:12;3.65;;;3.42;;
37151;SDS011;23046;50.112;8.952;2023-08-24T00:02:22;3.90;;;3.60;;
37151;SDS011;23046;50.112;8.952;2023-08-24T00:02:32;4.10;;;3.80;;
37151;SDS011;23046;50.112;8.952;2023-08-24T00:02:42;4.40;;;4.00;;
37151;SDS011;23046;50.112;8.952;2023-08-24T00:02:53;4.20;;;3.80;;
37151;SDS011;23046;50.112;8.952;2023-08-24T00:03:03;4.20;;;3.80;;
37151;SDS011;23046;50.112;8.952;2023-08-24T00:03:13;4.03;;;3.72;;
37151;SDS011;23046;50.112;8.952;2023-08-24T00:03:24;4.03;;;3.73;;
37151;SDS011;23046;50.112;8.952;2023-08-24T00:03:34;4.03;;;3.73;;
37151;SDS011;23046;50.112;8.952;2023-08-24T00:03:44;4.20;;;3.90;;
37151;SDS011;23046;50.112;8.952;2023-08-24T00:03:56;4.15;;;3.72;;
37151;SDS011;23046;50.112;8.952;2023-08-24T00:04:06;4.57;;;3.57;;
37151;SDS011;23046;50.112;8.952;2023-08-24T00:04:17;4.20;;;3.45;;
37151;SDS011;23046;50.112;8.952;2023-08-24T00:04:28;3.80;;;3.50;;
37151;SDS011;23046;50.112;8.952;2023-08-24T00:04:38;3.60;;;3.40;;
37151;SDS011;23046;50.112;8.952;2023-08-24T00:04:48;3.72;;;3.53;;
37151;SDS011;23046;50.112;8.952;2023-08-24T00:04:58;3.83;;;3.63;;
37151;SDS011;23046;50.112;8.952;2023-08-24T00:05:10;3.83;;;3.53;;
37151;SDS011;23046;50.112;8.952;2023-08-24T00:05:21;4.10;;;3.60;;
37151;SDS011;23046;50.112;8.952;2023-08-24T00:05:34;4.13;;;3.60;;
37151;SDS011;23046;50.112;8.952;2023-08-24T00:05:47;4.43;;;3.78;;
37151;SDS011;23046;50.112;8.952;2023-08-24T00:05:57;4.00;;;3.70;;
37151;SDS011;23046;50.112;8.952;2023-08-24T00:06:07;3.83;;;3.53;;
37151;SDS011;23046;50.112;8.952;2023-08-24T00:06:17;3.80;;;3.50;;
37151;SDS011;23046;50.112;8.952;2023-08-24T00:06:27;3.77;;;3.47;;
37151;SDS011;23046;50.112;8.952;2023-08-24T00:06:38;3.70;;;3.50;;
37151;SDS011;23046;50.112;8.952;2023-08-24T00:06:48;3.80;;;3.50;;
37151;SDS011;23046;50.112;8.952;2023-08-24T00:06:58;3.83;;;3.53;;
37151;SDS011;23046;50.112;8.952;2023-08-24T00:07:08;3.83;;;3.53;;
37151;SDS011;23046;50.112;8.952;2023-08-24T00:07:18;3.90;;;3.60;;
37151;SDS011;23046;50.112;8.952;2023-08-24T00:07:29;3.90;;;3.60;;
37151;SDS011;23046;50.112;8.952;2023-08-24T00:07:39;4.00;;;3.70;;
37151;SDS011;23046;50.112;8.952;2023-08-24T00:07:49;3.97;;;3.67;;
37151;SDS011;23046;50.112;8.952;2023-08-24T00:08:01;3.70;;;3.50;;
37151;SDS011;23046;50.112;8.952;2023-08-24T00:08:11;3.50;;;3.30;;
37151;SDS011;23046;50.112;8.952;2023-08-24T00:08:21;3.63;;;3.42;;
37151;SDS011;23046;50.112;8.952;2023-08-24T00:08:32;4.00;;;3.70;;
37151;SDS011;23046;50.112;8.952;2023-08-24T00:08:42;4.20;;;3.90;;
37151;SDS011;23046;50.112;8.952;2023-08-24T00:08:53;4.20;;;3.90;;
37151;SDS011;23046;50.112;8.952;2023-08-24T00:09:03;4.10;;;3.80;;
37151;SDS011;23046;50.112;8.952;2023-08-24T00:09:15;4.25;;;3.67;;
37151;SDS011;23046;50.112;8.952;2023-08-24T00:09:26;4.17;;;3.67;;
37151;SDS011;23046;50.112;8.952;2023-08-24T00:09:36;4.07;;;3.65;;
37151;SDS011;23046;50.112;8.952;2023-08-24T00:09:47;3.80;;;3.50;;
37151;SDS011;23046;50.112;8.952;2023-08-24T00:09:58;3.63;;;3.40;;
37151;SDS011;23046;50.112;8.952;2023-08-24T00:10:08;3.73;;;3.43;;
37151;SDS011;23046;50.112;8.952;2023-08-24T00:10:18;3.93;;;3.63;;
37151;SDS011;23046;50.112;8.952;2023-08-24T00:10:29;3.80;;;3.50;;
37151;SDS011;23046;50.112;8.952;2023-08-24T00:10:39;3.80;;;3.50;;
37151;SDS011;23046;50.112;8.952;2023-08-24T00:10:49;3.80;;;3.50;;
37151;SDS011;23046;50.112;8.952;2023-08-24T00:10:59;4.00;;;3.60;;
37151;SDS011;23046;50.112;8.952;2023-08-24T00:11:10;4.15;;;3.75;;
37151;SDS011;23046;50.112;8.952;2023-08-24T00:11:25;3.83;;;3.58;;
37151;SDS011;23046;50.112;8.952;2023-08-24T00:11:35;3.88;;;3.60;;
37151;SDS011;23046;50.112;8.952;2023-08-24T00:11:45;3.90;;;3.60;;
37151;SDS011;23046;50.112;8.952;2023-08-24T00:11:55;4.00;;;3.70;;
37151;SDS011;23046;50.112;8.952;2023-08-24T00:12:06;3.83;;;3.53;;
37151;SDS011;23046;50.112;8.952;2023-08-24T00:12:16;3.53;;;3.33;;
37151;SDS011;23046;50.112;8.952;2023-08-24T00:12:26;3.63;;;3.33;;
37151;SDS011;23046;50.112;8.952;2023-08-24T00:12:37;3.73;;;3.43;;
37151;SDS011;23046;50.112;8.952;2023-08-24T00:12:47;3.67;;;3.40;;
37151;SDS011;23046;50.112;8.952;2023-08-24T00:12:57;3.60;;;3.40;;
37151;SDS011;23046;50.112;8.952;2023-08-24T00:13:07;3.30;;;3.10;;
37151;SDS011;23046;50.112;8.952;2023-08-24T00:13:17;3.53;;;3.33;;
37151;SDS011;23046;50.112;8.952;2023-08-24T00:13:28;3.60;;;3.40;;
37151;SDS011;23046;50.112;8.952;2023-08-24T00:13:38;3.73;;;3.43;;
37151;SDS011;23046;50.112;8.952;2023-08-24T00:13:49;3.73;;;3.40;;
37151;SDS011;23046;50.112;8.952;2023-08-24T00:13:59;4.38;;;3.58;;
37151;SDS011;23046;50.112;8.952;2023-08-24T00:14:09;4.10;;;3.50;;
37151;SDS011;23046;50.112;8.952;2023-08-24T00:14:19;4.90;;;3.50;;
37151;SDS011;23046;50.112;8.952;2023-08-24T00:14:30;5.07;;;3.57;;
37151;SDS011;23046;50.112;8.952;2023-08-24T00:14:40;4.57;;;3.73;;
37151;SDS011;23046;50.112;8.952;2023-08-24T00:14:50;4.18;;;3.58;;
37151;SDS011;23046;50.112;8.952;2023-08-24T00:15:00;3.83;;;3.53;;
37151;SDS011;23046;50.112;8.952;2023-08-24T00:15:10;3.77;;;3.47;;
37151;SDS011;23046;50.112;8.952;2023-08-24T00:15:21;3.70;;;3.50;;
37151;SDS011;23046;50.112;8.952;2023-08-24T00:15:31;3.50;;;3.22;;
37151;SDS011;23046;50.112;8.952;2023-08-24T00:15:41;3.60;;;3.30;;
37151;SDS011;23046;50.112;8.952;2023-08-24T00:15:52;3.63;;;3.30;;
37151;SDS011;23046;50.112;8.952;2023-08-24T00:16:03;3.95;;;3.55;;
37151;SDS011;23046;50.112;8.952;2023-08-24T00:16:17;4.03;;;3.70;;
37151;SDS011;23046;50.112;8.952;2023-08-24T00:16:27;4.15;;;3.85;;
37151;SDS011;23046;50.112;8.952;2023-08-24T00:16:37;4.07;;;3.77;;
37151;SDS011;23046;50.112;8.952;2023-08-24T00:16:48;4.00;;;3.70;;
37151;SDS011;23046;50.112;8.952;2023-08-24T00:16:59;4.00;;;3.70;;
37151;SDS011;23046;50.112;8.952;2023-08-24T00:17:09;4.07;;;3.70;;
37151;SDS011;23046;50.112;8.952;2023-08-24T00:17:19;3.92;;;3.63;;
37151;SDS011;23046;50.112;8.952;2023-08-24T00:17:29;3.80;;;3.50;;
37151;SDS011;23046;50.112;8.952;2023-08-24T00:17:40;3.83;;;3.53;;
37151;SDS011;23046;50.112;8.952;2023-08-24T00:17:50;3.97;;;3.57;;
37151;SDS011;23046;50.112;8.952;2023-08-24T00:18:00;4.50;;;3.80;;
37151;SDS011;23046;50.112;8.952;2023-08-24T00:18:10;4.00;;;3.70;;
37151;SDS011;23046;50.112;8.952;2023-08-24T00:18:20;4.03;;;3.70;;
37151;SDS011;23046;50.112;8.952;2023-08-24T00:18:34;4.18;;;3.88;;
37151;SDS011;23046;50.112;8.952;2023-08-24T00:18:44;4.27;;;3.93;;
37151;SDS011;23046;50.112;8.952;2023-08-24T00:18:55;4.20;;;3.90;;
37151;SDS011;23046;50.112;8.952;2023-08-24T00:19:05;3.93;;;3.63;;
37151;SDS011;23046;50.112;8.952;2023-08-24T00:19:15;3.90;;;3.60;;
37151;SDS011;23046;50.112;8.952;2023-08-24T00:19:25;3.93;;;3.53;;
37151;SDS011;23046;50.112;8.952;2023-08-24T00:19:36;4.20;;;3.60;;
37151;SDS011;23046;50.112;8.952;2023-08-24T00:19:46;3.93;;;3.53;;
37151;SDS011;23046;50.112;8.952;2023-08-24T00:19:56;3.70;;;3.40;;
37151;SDS011;23046;50.112;8.952;2023-08-24T00:20:07;3.88;;;3.58;;
37151;SDS011;23046;50.112;8.952;2023-08-24T00:20:20;3.80;;;3.50;;
37151;SDS011;23046;50.112;8.952;2023-08-24T00:20:31;3.90;;;3.60;;
37151;SDS011;23046;50.112;8.952;2023-08-24T00:20:42;3.90;;;3.60;;
37151;SDS011;23046;50.112;8.952;2023-08-24T00:20:52;3.97;;;3.70;;
37151;SDS011;23046;50.112;8.952;2023-08-24T00:21:03;3.85;;;3.65;;
37151;SDS011;23046;50.112;8.952;2023-08-24T00:21:13;3.67;;;3.47;;
37151;SDS011;23046;50.112;8.952;2023-08-24T00:21:26;3.85;;;3.55;;
37151;SDS011;23046;50.112;8.952;2023-08-24T00:21:37;3.85;;;3.55;;
37151;SDS011;23046;50.112;8.952;2023-08-24T00:21:47;3.83;;;3.53;;
37151;SDS011;23046;50.112;8.952;2023-08-24T00:21:57;3.80;;;3.50;;
37151;SDS011;23046;50.112;8.952;2023-08-24T00:22:08;3.95;;;3.58;;
37151;SDS011;23046;50.112;8.952;2023-08-24T00:22:18;4.67;;;3.67;;
37151;SDS011;23046;50.112;8.952;2023-08-24T00:22:28;4.67;;;3.60;;
37151;SDS011;23046;50.112;8.952;2023-08-24T00:22:38;4.63;;;3.63;;
37151;SDS011;23046;50.112;8.952;2023-08-24T00:22:49;4.00;;;3.60;;
37151;SDS011;23046;50.112;8.952;2023-08-24T00:22:59;3.73;;;3.53;;
37151;SDS011;23046;50.112;8.952;2023-08-24T00:23:09;3.77;;;3.53;;
37151;SDS011;23046;50.112;8.952;2023-08-24T00:23:20;3.70;;;3.50;;
37151;SDS011;23046;50.112;8.952;2023-08-24T00:23:30;3.80;;;3.50;;
37151;SDS011;23046;50.112;8.952;2023-08-24T00:23:40;3.80;;;3.43;;
37151;SDS011;23046;50.112;8.952;2023-08-24T00:23:50;4.60;;;3.50;;
37151;SDS011;23046;50.112;8.952;2023-08-24T00:24:01;4.65;;;3.60;;
37151;SDS011;23046;50.112;8.952;2023-08-24T00:24:11;4.00;;;3.70;;
37151;SDS011;23046;50.112;8.952;2023-08-24T00:24:21;4.00;;;3.60;;
37151;SDS011;23046;50.112;8.952;2023-08-24T00:24:31;4.17;;;3.77;;
37151;SDS011;23046;50.112;8.952;2023-08-24T00:24:41;3.97;;;3.57;;
37151;SDS011;23046;50.112;8.952;2023-08-24T00:24:52;3.90;;;3.60;;
37151;SDS011;23046;50.112;8.952;2023-08-24T00:25:02;3.75;;;3.45;;
37151;SDS011;23046;50.112;8.952;2023-08-24T00:25:12;3.87;;;3.53;;
37151;SDS011;23046;50.112;8.952;2023-08-24T00:25:22;4.13;;;3.60;;
37151;SDS011;23046;50.112;8.952;2023-08-24T00:25:33;3.77;;;3.47;;
37151;SDS011;23046;50.112;8.952;2023-08-24T00:25:43;3.80;;;3.40;;
37151;SDS011;23046;50.112;8.952;2023-08-24T00:25:53;3.63;;;3.33;;
37151;SDS011;23046;50.112;8.952;2023-08-24T00:26:03;3.80;;;3.50;;
37151;SDS011;23046;50.112;8.952;2023-08-24T00:26:14;4.00;;;3.70;;
37151;SDS011;23046;50.112;8.952;2023-08-24T00:26:27;4.05;;;3.70;;
37151;SDS011;23046;50.112;8.952;2023-08-24T00:26:37;4.10;;;3.63;;
37151;SDS011;23046;50.112;8.952;2023-08-24T00:26:47;4.40;;;3.60;;
37151;SDS011;23046;50.112;8.952;2023-08-24T00:26:57;4.03;;;3.63;;
37151;SDS011;23046;50.112;8.952;2023-08-24T00:27:07;3.80;;;3.50;;
37151;SDS011;23046;50.112;8.952;2023-08-24T00:27:18;3.53;;;3.27;;
37151;SDS011;23046;50.112;8.952;2023-08-24T00:27:28;3.80;;;3.50;;
37151;SDS011;23046;50.112;8.952;2023-08-24T00:27:38;3.80;;;3.50;;
37151;SDS011;23046;50.112;8.952;2023-08-24T00:27:49;4.18;;;3.78;;
37151;SDS011;23046;50.112;8.952;2023-08-24T00:27:59;4.00;;;3.60;;
37151;SDS011;23046;50.112;8.952;2023-08-24T00:28:09;4.15;;;3.75;;
37151;SDS011;23046;50.112;8.952;2023-08-24T00:28:19;3.90;;;3.60;;
37151;SDS011;23046;50.112;8.952;2023-08-24T00:28:30;3.65;;;3.40;;
37151;SDS011;23046;50.112;8.952;2023-08-24T00:28:41;3.70;;;3.40;;
37151;SDS011;23046;50.112;8.952;2023-08-24T00:28:51;3.70;;;3.40;;
37151;SDS011;23046;50.112;8.952;2023-08-24T00:29:03;4.05;;;3.58;;
37151;SDS011;23046;50.112;8.952;2023-08-24T00:29:13;5.77;;;3.33;;
37151;SDS011;23046;50.112;8.952;2023-08-24T00:29:24;5.60;;;3.47;;
37151;SDS011;23046;50.112;8.952;2023-08-24T00:29:34;4.40;;;3.30;;
37151;SDS011;23046;50.112;8.952;2023-08-24T00:29:44;3.83;;;3.57;;
37151;SDS011;23046;50.112;8.952;2023-08-24T00:29:54;3.80;;;3.53;;
37151;SDS011;23046;50.112;8.952;2023-08-24T00:30:06;6.47;;;3.67;;
37151;SDS011;23046;50.112;8.952;2023-08-24T00:30:16;6.35;;;3.50;;
37151;SDS011;23046;50.112;8.952;2023-08-24T00:30:28;5.53;;;3.40;;
37151;SDS011;23046;50.112;8.952;2023-08-24T00:30:38;3.78;;;3.50;;
37151;SDS011;23046;50.112;8.952;2023-08-24T00:30:49;3.83;;;3.53;;
37151;SDS011;23046;50.112;8.952;2023-08-24T00:30:59;3.80;;;3.50;;
37151;SDS011;23046;50.112;8.952;2023-08-24T00:31:10;3.83;;;3.53;;
37151;SDS011;23046;50.112;8.952;2023-08-24T00:31:21;5.27;;;3.70;;
37151;SDS011;23046;50.112;8.952;2023-08-24T00:31:32;4.93;;;3.80;;
37151;SDS011;23046;50.112;8.952;2023-08-24T00:31:43;4.68;;;3.70;;
37151;SDS011;23046;50.112;8.952;2023-08-24T00:31:54;3.60;;;3.30;;
37151;SDS011;23046;50.112;8.952;2023-08-24T00:32:04;3.63;;;3.33;;
37151;SDS011;23046;50.112;8.952;2023-08-24T00:32:14;3.60;;;3.30;;
37151;SDS011;23046;50.112;8.952;2023-08-24T00:32:25;3.70;;;3.40;;
37151;SDS011;23046;50.112;8.952;2023-08-24T00:32:35;3.70;;;3.40;;
37151;SDS011;23046;50.112;8.952;2023-08-24T00:32:46;3.72;;;3.42;;
37151;SDS011;23046;50.112;8.952;2023-08-24T00:32:56;3.67;;;3.37;;
37151;SDS011;23046;50.112;8.952;2023-08-24T00:33:06;4.03;;;3.33;;
37151;SDS011;23046;50.112;8.952;2023-08-24T00:33:16;3.97;;;3.40;;
37151;SDS011;23046;50.112;8.952;2023-08-24T00:33:27;3.75;;;3.45;;
37151;SDS011;23046;50.112;8.952;2023-08-24T00:33:38;4.80;;;3.42;;
37151;SDS011;23046;50.112;8.952;2023-08-24T00:33:48;4.57;;;3.50;;
37151;SDS011;23046;50.112;8.952;2023-08-24T00:34:00;5.25;;;3.50;;
37151;SDS011;23046;50.112;8.952;2023-08-24T00:34:10;3.80;;;3.40;;
37151;SDS011;23046;50.112;8.952;2023-08-24T00:34:21;4.00;;;3.57;;
37151;SDS011;23046;50.112;8.952;2023-08-24T00:34:31;3.90;;;3.60;;
37151;SDS011;23046;50.112;8.952;2023-08-24T00:34:41;3.73;;;3.50;;
37151;SDS011;23046;50.112;8.952;2023-08-24T00:34:51;3.83;;;3.40;;
37151;SDS011;23046;50.112;8.952;2023-08-24T00:35:02;3.80;;;3.30;;
37151;SDS011;23046;50.112;8.952;2023-08-24T00:35:12;3.50;;;3.20;;
37151;SDS011;23046;50.112;8.952;2023-08-24T00:35:23;3.47;;;3.28;;
37151;SDS011;23046;50.112;8.952;2023-08-24T00:35:35;3.42;;;3.22;;
37151;SDS011;23046;50.112;8.952;2023-08-24T00:35:46;4.18;;;3.63;;
37151;SDS011;23046;50.112;8.952;2023-08-24T00:36:02;4.60;;;3.70;;
37151;SDS011;23046;50.112;8.952;2023-08-24T00:36:13;3.95;;;3.58;;
37151;SDS011;23046;50.112;8.952;2023-08-24T00:36:23;3.90;;;3.60;;
37151;SDS011;23046;50.112;8.952;2023-08-24T00:36:33;4.10;;;3.70;;
37151;SDS011;23046;50.112;8.952;2023-08-24T00:36:44;3.90;;;3.58;;
37151;SDS011;23046;50.112;8.952;2023-08-24T00:36:54;3.80;;;3.50;;
37151;SDS011;23046;50.112;8.952;2023-08-24T00:37:04;3.43;;;3.23;;
37151;SDS011;23046;50.112;8.952;2023-08-24T00:37:14;3.40;;;3.20;;
37151;SDS011;23046;50.112;8.952;2023-08-24T00:37:25;3.30;;;3.10;;
37151;SDS011;23046;50.112;8.952;2023-08-24T00:37:35;3.50;;;3.20;;
37151;SDS011;23046;50.112;8.952;2023-08-24T00:37:46;3.58;;;3.25;;
37151;SDS011;23046;50.112;8.952;2023-08-24T00:37:56;3.50;;;3.20;;
37151;SDS011;23046;50.112;8.952;2023-08-24T00:38:06;3.67;;;3.37;;
37151;SDS011;23046;50.112;8.952;2023-08-24T00:38:17;3.53;;;3.30;;
37151;SDS011;23046;50.112;8.952;2023-08-24T00:38:28;3.83;;;3.43;;
37151;SDS011;23046;50.112;8.952;2023-08-24T00:38:38;4.38;;;3.38;;
37151;SDS011;23046;50.112;8.952;2023-08-24T00:38:48;4.67;;;3.40;;
37151;SDS011;23046;50.112;8.952;2023-08-24T00:39:01;3.70;;;3.38;;
37151;SDS011;23046;50.112;8.952;2023-08-24T00:39:11;3.77;;;3.47;;
37151;SDS011;23046;50.112;8.952;2023-08-24T00:39:22;3.73;;;3.47;;
37151;SDS011;23046;50.112;8.952;2023-08-24T00:39:32;3.70;;;3.40;;
37151;SDS011;23046;50.112;8.952;2023-08-24T00:39:43;3.47;;;3.28;;
37151;SDS011;23046;50.112;8.952;2023-08-24T00:39:54;3.50;;;3.30;;
37151;SDS011;23046;50.112;8.952;2023-08-24T00:40:04;3.47;;;3.27;;
37151;SDS011;23046;50.112;8.952;2023-08-24T00:40:19;3.60;;;3.30;;
37151;SDS011;23046;50.112;8.952;2023-08-24T00:40:30;3.72;;;3.42;;
37151;SDS011;23046;50.112;8.952;2023-08-24T00:40:44;3.70;;;3.45;;
37151;SDS011;23046;50.112;8.952;2023-08-24T00:40:55;3.80;;;3.57;;
37151;SDS011;23046;50.112;8.952;2023-08-24T00:41:05;3.60;;;3.40;;
37151;SDS011;23046;50.112;8.952;2023-08-24T00:41:15;3.50;;;3.28;;
37151;SDS011;23046;50.112;8.952;2023-08-24T00:41:25;3.67;;;3.37;;
37151;SDS011;23046;50.112;8.952;2023-08-24T00:41:36;3.50;;;3.20;;
37151;SDS011;23046;50.112;8.952;2023-08-24T00:41:46;3.40;;;3.17;;
37151;SDS011;23046;50.112;8.952;2023-08-24T00:41:58;3.30;;;3.00;;
37151;SDS011;23046;50.112;8.952;2023-08-24T00:42:08;3.40;;;3.10;;
37151;SDS011;23046;50.112;8.952;2023-08-24T00:42:23;3.35;;;3.05;;
37151;SDS011;23046;50.112;8.952;2023-08-24T00:42:33;3.40;;;3.10;;
37151;SDS011;23046;50.112;8.952;2023-08-24T00:42:44;4.33;;;3.27;;
37151;SDS011;23046;50.112;8.952;2023-08-24T00:42:54;4.10;;;3.30;;
37151;SDS011;23046;50.112;8.952;2023-08-24T00:43:04;4.13;;;3.40;;
37151;SDS011;23046;50.112;8.952;2023-08-24T00:43:14;3.70;;;3.40;;
37151;SDS011;23046;50.112;8.952;2023-08-24T00:43:25;3.70;;;3.40;;
37151;SDS011;23046;50.112;8.952;2023-08-24T00:43:35;3.73;;;3.40;;
37151;SDS011;23046;50.112;8.952;2023-08-24T00:43:46;3.80;;;3.50;;
37151;SDS011;23046;50.112;8.952;2023-08-24T00:43:56;3.95;;;3.65;;
37151;SDS011;23046;50.112;8.952;2023-08-24T00:44:07;4.00;;;3.70;;
37151;SDS011;23046;50.112;8.952;2023-08-24T00:44:18;3.83;;;3.58;;
37151;SDS011;23046;50.112;8.952;2023-08-24T00:44:30;3.60;;;3.33;;
37151;SDS011;23046;50.112;8.952;2023-08-24T00:44:41;3.40;;;3.10;;
37151;SDS011;23046;50.112;8.952;2023-08-24T00:44:51;3.27;;;3.00;;
37151;SDS011;23046;50.112;8.952;2023-08-24T00:45:01;3.10;;;2.90;;
37151;SDS011;23046;50.112;8.952;2023-08-24T00:45:12;3.20;;;3.00;;
37151;SDS011;23046;50.112;8.952;2023-08-24T00:45:24;3.30;;;3.10;;
37151;SDS011;23046;50.112;8.952;2023-08-24T00:45:34;3.57;;;3.37;;
37151;SDS011;23046;50.112;8.952;2023-08-24T00:45:45;3.50;;;3.30;;
37151;SDS011;23046;50.112;8.952;2023-08-24T00:45:56;3.50;;;3.30;;
37151;SDS011;23046;50.112;8.952;2023-08-24T00:46:07;3.50;;;3.30;;
37151;SDS011;23046;50.112;8.952;2023-08-24T00:46:18;3.40;;;3.20;;
37151;SDS011;23046;50.112;8.952;2023-08-24T00:46:28;3.63;;;3.33;;
37151;SDS011;23046;50.112;8.952;2023-08-24T00:46:39;3.75;;;3.28;;
37151;SDS011;23046;50.112;8.952;2023-08-24T00:46:49;4.17;;;3.30;;
37151;SDS011;23046;50.112;8.952;2023-08-24T00:47:00;4.35;;;3.30;;
37151;SDS011;23046;50.112;8.952;2023-08-24T00:47:10;3.40;;;3.10;;
37151;SDS011;23046;50.112;8.952;2023-08-24T00:47:20;3.73;;;3.40;;
37151;SDS011;23046;50.112;8.952;2023-08-24T00:47:31;3.50;;;3.30;;
37151;SDS011;23046;50.112;8.952;2023-08-24T00:47:45;3.63;;;3.37;;
37151;SDS011;23046;50.112;8.952;2023-08-24T00:47:56;3.38;;;3.17;;
37151;SDS011;23046;50.112;8.952;2023-08-24T00:48:06;3.47;;;3.20;;
37151;SDS011;23046;50.112;8.952;2023-08-24T00:48:17;3.50;;;3.20;;
37151;SDS011;23046;50.112;8.952;2023-08-24T00:48:27;3.33;;;3.10;;
37151;SDS011;23046;50.112;8.952;2023-08-24T00:48:38;3.40;;;3.10;;
37151;SDS011;23046;50.112;8.952;2023-08-24T00:48:49;3.45;;;3.15;;
37151;SDS011;23046;50.112;8.952;2023-08-24T00:49:00;3.50;;;3.20;;
37151;SDS011;23046;50.112;8.952;2023-08-24T00:49:11;3.67;;;3.37;;
37151;SDS011;23046;50.112;8.952;2023-08-24T00:49:21;3.60;;;3.30;;
37151;SDS011;23046;50.112;8.952;2023-08-24T00:49:32;3.40;;;3.10;;
37151;SDS011;23046;50.112;8.952;2023-08-24T00:49:42;3.42;;;3.10;;
37151;SDS011;23046;50.112;8.952;2023-08-24T00:49:52;3.77;;;3.03;;
37151;SDS011;23046;50.112;8.952;2023-08-24T00:50:03;3.50;;;3.13;;
37151;SDS011;23046;50.112;8.952;2023-08-24T00:50:13;3.30;;;3.00;;
37151;SDS011;23046;50.112;8.952;2023-08-24T00:50:24;3.37;;;3.10;;
37151;SDS011;23046;50.112;8.952;2023-08-24T00:50:34;3.40;;;3.10;;
37151;SDS011;23046;50.112;8.952;2023-08-24T00:50:45;3.70;;;3.20;;
37151;SDS011;23046;50.112;8.952;2023-08-24T00:50:55;3.83;;;3.27;;
37151;SDS011;23046;50.112;8.952;2023-08-24T00:51:06;3.65;;;3.30;;
37151;SDS011;23046;50.112;8.952;2023-08-24T00:51:16;3.40;;;3.20;;
37151;SDS011;23046;50.112;8.952;2023-08-24T00:51:26;3.20;;;3.00;;
37151;SDS011;23046;50.112;8.952;2023-08-24T00:51:36;3.30;;;3.10;;
37151;SDS011;23046;50.112;8.952;2023-08-24T00:51:48;3.97;;;3.20;;
37151;SDS011;23046;50.112;8.952;2023-08-24T00:51:58;4.40;;;3.40;;
37151;SDS011;23046;50.112;8.952;2023-08-24T00:52:09;5.10;;;3.27;;
37151;SDS011;23046;50.112;8.952;2023-08-24T00:52:20;4.45;;;3.30;;
37151;SDS011;23046;50.112;8.952;2023-08-24T00:52:31;4.40;;;3.13;;
37151;SDS011;23046;50.112;8.952;2023-08-24T00:52:41;3.58;;;3.28;;
37151;SDS011;23046;50.112;8.952;2023-08-24T00:52:52;3.60;;;3.30;;
37151;SDS011;23046;50.112;8.952;2023-08-24T00:53:03;3.60;;;3.30;;
37151;SDS011;23046;50.112;8.952;2023-08-24T00:53:14;3.63;;;3.33;;
37151;SDS011;23046;50.112;8.952;2023-08-24T00:53:24;3.43;;;3.20;;
37151;SDS011;23046;50.112;8.952;2023-08-24T00:53:35;3.47;;;3.17;;
37151;SDS011;23046;50.112;8.952;2023-08-24T00:53:46;3.30;;;3.05;;
37151;SDS011;23046;50.112;8.952;2023-08-24T00:53:56;3.40;;;3.10;;
37151;SDS011;23046;50.112;8.952;2023-08-24T00:54:08;3.42;;;3.10;;
37151;SDS011;23046;50.112;8.952;2023-08-24T00:54:18;3.83;;;3.10;;
37151;SDS011;23046;50.112;8.952;2023-08-24T00:54:28;3.80;;;3.17;;
37151;SDS011;23046;50.112;8.952;2023-08-24T00:54:39;3.40;;;3.10;;
37151;SDS011;23046;50.112;8.952;2023-08-24T00:54:49;3.33;;;3.13;;
37151;SDS011;23046;50.112;8.952;2023-08-24T00:54:59;3.40;;;3.10;;
37151;SDS011;23046;50.112;8.952;2023-08-24T00:55:10;4.03;;;3.20;;
37151;SDS011;23046;50.112;8.952;2023-08-24T00:55:21;4.50;;;3.20;;
37151;SDS011;23046;50.112;8.952;2023-08-24T00:55:31;4.20;;;3.30;;
37151;SDS011;23046;50.112;8.952;2023-08-24T00:55:41;3.60;;;3.30;;
37151;SDS011;23046;50.112;8.952;2023-08-24T00:55:52;3.47;;;3.28;;
37151;SDS011;23046;50.112;8.952;2023-08-24T00:56:03;3.30;;;3.10;;
37151;SDS011;23046;50.112;8.952;2023-08-24T00:56:13;3.47;;;3.17;;
37151;SDS011;23046;50.112;8.952;2023-08-24T00:56:24;3.80;;;3.20;;
37151;SDS011;23046;50.112;8.952;2023-08-24T00:56:34;5.20;;;3.33;;
37151;SDS011;23046;50.112;8.952;2023-08-24T00:56:45;4.32;;;3.20;;
37151;SDS011;23046;50.112;8.952;2023-08-24T00:56:55;4.15;;;3.22;;
37151;SDS011;23046;50.112;8.952;2023-08-24T00:57:06;3.50;;;3.20;;
37151;SDS011;23046;50.112;8.952;2023-08-24T00:57:16;4.80;;;3.27;;
37151;SDS011;23046;50.112;8.952;2023-08-24T00:57:27;4.13;;;3.20;;
37151;SDS011;23046;50.112;8.952;2023-08-24T00:57:38;4.18;;;3.15;;
37151;SDS011;23046;50.112;8.952;2023-08-24T00:57:49;3.25;;;3.03;;
37151;SDS011;23046;50.112;8.952;2023-08-24T00:58:00;3.50;;;3.20;;
37151;SDS011;23046;50.112;8.952;2023-08-24T00:58:11;3.83;;;3.40;;
37151;SDS011;23046;50.112;8.952;2023-08-24T00:58:21;3.72;;;3.40;;
37151;SDS011;23046;50.112;8.952;2023-08-24T00:58:32;3.55;;;3.28;;
37151;SDS011;23046;50.112;8.952;2023-08-24T00:58:44;3.42;;;3.22;;
37151;SDS011;23046;50.112;8.952;2023-08-24T00:58:55;3.53;;;3.30;;
37151;SDS011;23046;50.112;8.952;2023-08-24T00:59:06;3.40;;;3.20;;
37151;SDS011;23046;50.112;8.952;2023-08-24T00:59:17;3.50;;;3.30;;
37151;SDS011;23046;50.112;8.952;2023-08-24T00:59:27;3.40;;;3.20;;
37151;SDS011;23046;50.112;8.952;2023-08-24T00:59:37;3.57;;;3.37;;
37151;SDS011;23046;50.112;8.952;2023-08-24T00:59:48;3.40;;;3.20;;
37151;SDS011;23046;50.112;8.952;2023-08-24T01:00:02;3.40;;;3.20;;
37151;SDS011;23046;50.112;8.952;2023-08-24T01:00:15;3.33;;;3.13;;
37151;SDS011;23046;50.112;8.952;2023-08-24T01:00:26;3.47;;;3.28;;
37151;SDS011;23046;50.112;8.952;2023-08-24T01:00:36;3.80;;;3.50;;
37151;SDS011;23046;50.112;8.952;2023-08-24T01:00:50;4.00;;;3.50;;
37151;SDS011;23046;50.112;8.952;2023-08-24T01:01:02;3.78;;;3.33;;
37151;SDS011;23046;50.112;8.952;2023-08-24T01:01:13;3.20;;;2.95;;
37151;SDS011;23046;50.112;8.952;2023-08-24T01:01:25;3.17;;;2.97;;
37151;SDS011;23046;50.112;8.952;2023-08-24T01:01:35;3.37;;;3.17;;
37151;SDS011;23046;50.112;8.952;2023-08-24T01:01:46;3.60;;;3.30;;
37151;SDS011;23046;50.112;8.952;2023-08-24T01:01:57;3.67;;;3.38;;
37151;SDS011;23046;50.112;8.952;2023-08-24T01:02:08;3.50;;;3.20;;
37151;SDS011;23046;50.112;8.952;2023-08-24T01:02:19;3.20;;;3.00;;
37151;SDS011;23046;50.112;8.952;2023-08-24T01:02:29;3.58;;;3.10;;
37151;SDS011;23046;50.112;8.952;2023-08-24T01:02:39;3.60;;;3.27;;
37151;SDS011;23046;50.112;8.952;2023-08-24T01:02:49;3.87;;;3.30;;
37151;SDS011;23046;50.112;8.952;2023-08-24T01:03:00;3.73;;;3.37;;
37151;SDS011;23046;50.112;8.952;2023-08-24T01:03:10;3.70;;;3.30;;
37151;SDS011;23046;50.112;8.952;2023-08-24T01:03:23;3.80;;;3.40;;
37151;SDS011;23046;50.112;8.952;2023-08-24T01:03:35;3.30;;;3.10;;
37151;SDS011;23046;50.112;8.952;2023-08-24T01:03:45;3.47;;;3.28;;
37151;SDS011;23046;50.112;8.952;2023-08-24T01:03:55;3.67;;;3.37;;
37151;SDS011;23046;50.112;8.952;2023-08-24T01:04:06;3.70;;;3.40;;
37151;SDS011;23046;50.112;8.952;2023-08-24T01:04:17;3.65;;;3.35;;